createdAt,value
2022-09-14T00:01:27.376Z,18.92
2022-09-14T00:04:03.820Z,18.37
2022-09-14T00:06:33.320Z,18.79
2022-09-14T00:09:01.683Z,18.88
2022-09-14T00:11:31.186Z,18.86
2022-09-14T00:13:58.868Z,16.62
2022-09-14T00:16:31.554Z,17.70
2022-09-14T00:19:07.875Z,17.58
2022-09-14T00:21:36.724Z,18.11
2022-09-14T00:24:04.192Z,18.05
2022-09-14T00:26:30.908Z,17.50
2022-09-14T00:29:04.485Z,18.52
2022-09-14T00:31:34.662Z,16.98
2022-09-14T00:37:06.414Z,17.91
2022-09-14T00:39:32.951Z,18.30
2022-09-14T00:42:01.979Z,17.84
2022-09-14T00:44:28.693Z,18.23
2022-09-14T00:46:59.597Z,18.22
2022-09-14T00:49:43.050Z,17.73
2022-09-14T00:52:23.331Z,18.14
2022-09-14T00:54:58.243Z,18.17
2022-09-14T00:57:28.411Z,17.67
2022-09-14T00:59:58.096Z,18.24
2022-09-14T01:02:26.249Z,18.11
2022-09-14T01:04:53.184Z,18.19
2022-09-14T01:07:42.371Z,18.19
2022-09-14T01:10:15.212Z,17.85
2022-09-14T01:13:00.703Z,18.18
2022-09-14T01:15:48.734Z,18.13
2022-09-14T01:18:29.472Z,17.81
2022-09-14T01:21:12.471Z,18.09
2022-09-14T01:24:19.197Z,18.06
2022-09-14T01:26:56.680Z,18.01
2022-09-14T01:29:46.809Z,17.09
2022-09-14T01:32:30.076Z,18.00
2022-09-14T01:35:06.294Z,18.00
2022-09-14T01:37:38.143Z,17.98
2022-09-14T01:40:13.243Z,17.67
2022-09-14T01:42:43.190Z,16.87
2022-09-14T01:45:16.498Z,17.76
2022-09-14T01:47:45.443Z,17.82
2022-09-14T01:50:18.404Z,17.64
2022-09-14T01:52:53.307Z,16.59
2022-09-14T01:55:28.790Z,17.87
2022-09-14T01:58:11.788Z,17.26
2022-09-14T02:00:42.595Z,17.39
2022-09-14T02:03:14.706Z,17.76
2022-09-14T02:06:00.666Z,17.73
2022-09-14T02:08:30.591Z,17.26
2022-09-14T02:10:58.123Z,17.65
2022-09-14T02:13:27.932Z,17.32
2022-09-14T02:15:54.731Z,17.53
2022-09-14T02:18:23.876Z,17.64
2022-09-14T02:20:58.190Z,16.53
2022-09-14T02:23:27.911Z,17.59
2022-09-14T02:25:54.899Z,17.04
2022-09-14T02:28:21.895Z,16.84
2022-09-14T02:31:18.933Z,17.49
2022-09-14T02:34:13.701Z,17.48
2022-09-14T02:36:52.519Z,17.43
2022-09-14T02:39:24.969Z,17.41
2022-09-14T02:42:34.799Z,17.35
2022-09-14T02:45:14.072Z,17.27
2022-09-14T02:47:57.388Z,16.33
2022-09-14T02:50:34.837Z,17.31
2022-09-14T02:53:09.368Z,17.35
2022-09-14T02:55:38.529Z,17.03
2022-09-14T02:58:08.522Z,17.36
2022-09-14T03:00:41.560Z,17.31
2022-09-14T03:03:12.533Z,17.26
2022-09-14T03:05:39.883Z,17.36
2022-09-14T03:08:10.905Z,16.94
2022-09-14T03:10:42.884Z,17.54
2022-09-14T03:13:09.639Z,17.53
2022-09-14T03:15:38.861Z,17.52
2022-09-14T03:18:09.138Z,17.53
2022-09-14T03:20:37.863Z,17.41
2022-09-14T03:23:09.109Z,16.85
2022-09-14T03:25:40.069Z,17.70
2022-09-14T03:28:07.227Z,17.60
2022-09-14T03:30:34.592Z,17.84
2022-09-14T03:33:01.387Z,17.63
2022-09-14T03:35:31.297Z,17.92
2022-09-14T03:38:03.117Z,17.26
2022-09-14T03:40:30.333Z,17.96
2022-09-14T03:42:57.380Z,18.00
2022-09-14T03:45:26.092Z,17.49
2022-09-14T03:47:52.830Z,18.03
2022-09-14T03:50:19.981Z,17.52
2022-09-14T03:52:46.782Z,17.81
2022-09-14T03:55:15.676Z,17.94
2022-09-14T03:57:42.445Z,17.90
2022-09-14T04:00:10.084Z,17.92
2022-09-14T04:02:40.430Z,17.95
2022-09-14T04:05:07.702Z,17.83
2022-09-14T04:07:34.598Z,17.93
2022-09-14T04:10:01.234Z,17.64
2022-09-14T04:12:33.626Z,17.84
2022-09-14T04:15:02.600Z,17.93
2022-09-14T04:17:31.941Z,17.87
2022-09-14T04:19:58.641Z,17.85
2022-09-14T04:22:25.418Z,17.29
2022-09-14T04:24:53.592Z,17.73
2022-09-14T04:27:20.240Z,17.01
2022-09-14T04:29:53.793Z,17.21
2022-09-14T04:32:20.839Z,17.33
2022-09-14T04:34:49.119Z,16.98
2022-09-14T04:37:15.989Z,17.58
2022-09-14T04:39:42.852Z,17.00
2022-09-14T04:42:09.660Z,16.64
2022-09-14T04:44:36.358Z,17.17
2022-09-14T04:47:03.357Z,17.25
2022-09-14T04:49:32.126Z,17.42
2022-09-14T04:51:58.787Z,17.63
2022-09-14T04:54:25.451Z,17.16
2022-09-14T04:56:52.135Z,17.50
2022-09-14T04:59:18.860Z,17.48
2022-09-14T05:01:48.225Z,17.10
2022-09-14T05:04:15.638Z,17.94
2022-09-14T05:06:44.429Z,17.99
2022-09-14T05:09:15.599Z,18.02
2022-09-14T05:11:42.867Z,17.51
2022-09-14T05:14:13.374Z,17.99
2022-09-14T05:16:41.524Z,17.65
2022-09-14T05:19:11.027Z,18.07
2022-09-14T05:21:38.304Z,18.04
2022-09-14T05:24:12.358Z,18.26
2022-09-14T05:26:45.412Z,18.36
2022-09-14T05:29:14.053Z,18.40
2022-09-14T05:31:41.027Z,17.17
2022-09-14T05:34:09.643Z,18.09
2022-09-14T05:36:37.590Z,17.85
2022-09-14T05:39:10.248Z,17.88
2022-09-14T05:41:39.179Z,18.40
2022-09-14T05:44:11.203Z,18.24
2022-09-14T05:46:38.091Z,18.61
2022-09-14T05:49:04.945Z,17.63
2022-09-14T05:51:33.853Z,18.42
2022-09-14T05:54:00.965Z,18.26
2022-09-14T05:56:29.562Z,18.55
2022-09-14T05:58:56.527Z,18.35
2022-09-14T06:01:28.632Z,18.66
2022-09-14T06:04:00.461Z,18.93
2022-09-14T06:06:33.499Z,18.99
2022-09-14T06:09:00.466Z,18.28
2022-09-14T06:11:36.416Z,18.83
2022-09-14T06:14:03.803Z,18.27
2022-09-14T06:16:30.676Z,18.97
2022-09-14T06:18:58.405Z,19.29
2022-09-14T06:21:33.727Z,19.13
2022-09-14T06:24:00.691Z,19.20
2022-09-14T06:26:29.634Z,19.45
2022-09-14T06:28:56.493Z,19.57
2022-09-14T06:31:25.163Z,18.93
2022-09-14T06:33:52.747Z,19.92
2022-09-14T06:36:26.462Z,19.84
2022-09-14T06:38:53.979Z,20.11
2022-09-14T06:41:26.864Z,20.16
2022-09-14T06:43:56.783Z,19.77
2022-09-14T06:46:31.409Z,20.18
2022-09-14T06:49:12.519Z,19.97
2022-09-14T06:51:41.570Z,19.59
2022-09-14T06:54:12.667Z,19.55
2022-09-14T06:56:40.946Z,19.70
2022-09-14T06:59:09.177Z,18.97
2022-09-14T07:01:36.222Z,19.33
2022-09-14T07:04:05.836Z,19.14
2022-09-14T07:06:39.179Z,19.10
2022-09-14T07:09:08.568Z,18.89
2022-09-14T07:11:40.634Z,18.44
2022-09-14T07:14:10.342Z,18.76
2022-09-14T07:16:38.536Z,18.40
2022-09-14T07:19:13.348Z,18.42
2022-09-14T07:21:40.602Z,18.38
2022-09-14T07:24:07.504Z,18.25
2022-09-14T07:26:42.383Z,18.59
2022-09-14T07:29:14.819Z,18.42
2022-09-14T07:31:51.933Z,18.30
2022-09-14T07:34:19.140Z,18.45
2022-09-14T07:36:46.194Z,18.62
2022-09-14T07:39:15.166Z,18.96
2022-09-14T07:41:43.418Z,18.41
2022-09-14T07:44:14.428Z,19.11
2022-09-14T07:46:43.296Z,19.29
2022-09-14T07:49:13.250Z,19.40
2022-09-14T07:51:43.164Z,19.32
2022-09-14T07:54:15.538Z,19.62
2022-09-14T07:56:43.481Z,19.43
2022-09-14T07:59:34.371Z,19.83
2022-09-14T08:01:58.606Z,19.46
2022-09-14T08:04:25.866Z,19.94
2022-09-14T08:06:52.507Z,19.87
2022-09-14T08:09:21.467Z,19.34
2022-09-14T08:11:51.082Z,19.67
2022-09-14T08:14:17.703Z,19.76
2022-09-14T08:16:46.811Z,20.01
2022-09-14T08:19:17.138Z,20.18
2022-09-14T08:21:47.319Z,20.01
2022-09-14T08:24:20.104Z,20.34
2022-09-14T08:26:48.514Z,20.17
2022-09-14T08:29:16.848Z,20.45
2022-09-14T08:31:45.880Z,20.57
2022-09-14T08:34:13.339Z,20.76
2022-09-14T08:36:41.075Z,20.83
2022-09-14T08:39:10.152Z,20.40
2022-09-14T08:41:46.140Z,20.78
2022-09-14T08:44:43.565Z,20.83
2022-09-14T08:47:13.566Z,20.80
2022-09-14T08:49:47.536Z,21.06
2022-09-14T08:52:32.806Z,21.19
2022-09-14T08:55:01.718Z,21.13
2022-09-14T08:57:31.734Z,21.04
2022-09-14T09:00:04.602Z,21.80
2022-09-14T09:02:56.617Z,22.09
2022-09-14T09:05:48.558Z,22.34
2022-09-14T09:08:33.448Z,21.66
2022-09-14T09:11:01.510Z,22.61
2022-09-14T09:13:31.767Z,22.67
2022-09-14T09:16:03.691Z,22.71
2022-09-14T09:18:50.558Z,21.51
2022-09-14T09:21:29.541Z,22.13
2022-09-14T09:23:57.934Z,22.74
2022-09-14T09:26:32.447Z,22.06
2022-09-14T09:29:03.326Z,22.85
2022-09-14T09:31:56.431Z,22.53
2022-09-14T09:34:52.545Z,22.23
2022-09-14T09:37:30.825Z,22.20
2022-09-14T09:39:57.589Z,22.90
2022-09-14T09:42:26.941Z,21.95
2022-09-14T09:45:00.596Z,22.22
2022-09-14T09:47:50.759Z,22.62
2022-09-14T09:50:22.013Z,21.78
2022-09-14T09:52:57.647Z,21.23
2022-09-14T09:55:27.465Z,22.23
2022-09-14T09:57:57.314Z,22.09
2022-09-14T10:00:26.754Z,21.73
2022-09-14T10:02:54.675Z,23.57
2022-09-14T10:05:29.108Z,23.87
2022-09-14T10:08:11.285Z,22.90
2022-09-14T10:10:42.964Z,23.97
2022-09-14T10:13:26.074Z,24.20
2022-09-14T10:15:54.270Z,23.72
2022-09-14T10:18:22.377Z,24.02
2022-09-14T10:20:51.946Z,23.96
2022-09-14T10:23:18.604Z,24.16
2022-09-14T10:26:13.453Z,24.05
2022-09-14T10:28:44.204Z,23.89
2022-09-14T10:31:19.796Z,24.44
2022-09-14T10:33:56.439Z,24.74
2022-09-14T10:36:36.152Z,24.22
2022-09-14T10:39:17.248Z,24.37
2022-09-14T10:41:52.995Z,25.01
2022-09-14T10:44:50.322Z,25.47
2022-09-14T10:47:37.068Z,25.54
2022-09-14T10:50:26.938Z,25.65
2022-09-14T10:53:19.962Z,25.73
2022-09-14T10:56:01.749Z,25.23
2022-09-14T10:58:42.085Z,25.93
2022-09-14T11:01:08.764Z,25.95
2022-09-14T11:04:00.168Z,25.86
2022-09-14T11:06:26.824Z,25.82
2022-09-14T11:09:00.860Z,25.31
2022-09-14T11:11:37.290Z,25.59
2022-09-14T11:14:12.995Z,26.00
2022-09-14T11:17:36.964Z,25.97
2022-09-14T11:20:26.859Z,25.86
2022-09-14T11:23:28.032Z,25.80
2022-09-14T11:25:57.767Z,25.69
2022-09-14T11:28:39.178Z,24.21
2022-09-14T11:31:12.441Z,23.86
2022-09-14T11:33:46.620Z,23.69
2022-09-14T11:36:21.203Z,24.42
2022-09-14T11:39:01.390Z,24.24
2022-09-14T11:41:41.812Z,24.76
2022-09-14T11:44:32.499Z,24.50
2022-09-14T11:47:06.458Z,24.42
2022-09-14T11:50:03.957Z,24.99
2022-09-14T11:52:32.597Z,25.00
2022-09-14T11:55:00.788Z,23.89
2022-09-14T11:57:31.615Z,24.96
2022-09-14T12:00:23.705Z,24.86
2022-09-14T12:03:01.741Z,25.36
2022-09-14T12:05:33.766Z,25.49
2022-09-14T12:08:32.206Z,25.37
2022-09-14T12:11:26.714Z,25.81
2022-09-14T12:14:22.184Z,26.31
2022-09-14T12:20:31.935Z,26.88
2022-09-14T12:23:21.500Z,26.93
2022-09-14T12:26:00.466Z,26.97
2022-09-14T12:28:36.591Z,26.89
2022-09-14T12:31:03.328Z,26.54
2022-09-14T12:33:32.744Z,26.01
2022-09-14T12:36:00.031Z,25.49
2022-09-14T12:38:32.028Z,25.33
2022-09-14T12:41:10.674Z,25.25
2022-09-14T12:43:37.672Z,25.70
2022-09-14T12:46:09.227Z,26.29
2022-09-14T12:48:48.167Z,27.12
2022-09-14T12:51:32.827Z,27.74
2022-09-14T12:54:11.766Z,27.99
2022-09-14T12:57:17.412Z,28.03
2022-09-14T12:59:56.132Z,28.59
2022-09-14T13:02:31.807Z,29.08
2022-09-14T13:05:00.896Z,29.58
2022-09-14T13:07:36.078Z,30.03
2022-09-14T13:10:04.807Z,30.19
2022-09-14T13:12:41.726Z,31.24
2022-09-14T13:15:31.826Z,32.05
2022-09-14T13:18:05.945Z,31.78
2022-09-14T13:20:35.893Z,29.45
2022-09-14T13:23:03.455Z,29.92
2022-09-14T13:25:36.839Z,30.74
2022-09-14T13:28:06.383Z,31.35
2022-09-14T13:30:37.381Z,30.07
2022-09-14T13:33:08.814Z,29.57
2022-09-14T13:35:39.195Z,30.36
2022-09-14T13:38:17.779Z,31.44
2022-09-14T13:40:44.863Z,31.16
2022-09-14T13:43:13.825Z,31.92
2022-09-14T13:45:40.925Z,32.23
2022-09-14T13:48:13.393Z,34.08
2022-09-14T13:50:45.274Z,33.57
2022-09-14T13:53:36.951Z,35.28
2022-09-14T13:56:28.205Z,34.86
2022-09-14T13:59:07.070Z,34.64
2022-09-14T14:01:40.992Z,34.79
2022-09-14T14:04:24.403Z,33.65
2022-09-14T14:07:15.672Z,35.59
2022-09-14T14:09:51.673Z,34.57
2022-09-14T14:12:28.326Z,34.26
2022-09-14T14:15:04.490Z,33.22
2022-09-14T14:17:34.489Z,32.69
2022-09-14T14:20:26.866Z,31.67
2022-09-14T14:22:57.493Z,31.48
2022-09-14T14:25:45.499Z,30.84
2022-09-14T14:28:39.670Z,30.40
2022-09-14T14:31:09.918Z,29.55
2022-09-14T14:33:47.756Z,29.84
2022-09-14T14:36:15.621Z,29.61
2022-09-14T14:38:44.821Z,28.30
2022-09-14T14:41:19.646Z,28.54
2022-09-14T14:43:46.986Z,29.72
2022-09-14T14:46:16.674Z,29.52
2022-09-14T14:48:43.451Z,30.51
2022-09-14T14:51:16.352Z,31.95
2022-09-14T14:53:43.361Z,32.16
2022-09-14T14:56:12.077Z,31.68
2022-09-14T14:58:46.472Z,30.50
2022-09-14T15:01:13.817Z,30.52
2022-09-14T15:03:40.584Z,29.93
2022-09-14T15:06:23.887Z,29.22
2022-09-14T15:08:57.064Z,28.92
2022-09-14T15:11:23.898Z,28.27
2022-09-14T15:13:53.696Z,28.65
2022-09-14T15:16:20.474Z,28.56
2022-09-14T15:18:49.358Z,27.87
2022-09-14T15:21:18.576Z,30.08
2022-09-14T15:23:45.241Z,30.18
2022-09-14T15:26:11.909Z,29.72
2022-09-14T15:28:38.646Z,30.21
2022-09-14T15:31:08.519Z,30.52
2022-09-14T15:33:35.191Z,29.86
2022-09-14T15:36:03.157Z,30.11
2022-09-14T15:38:29.965Z,28.76
2022-09-14T15:40:56.691Z,29.19
2022-09-14T15:43:25.967Z,29.49
2022-09-14T15:45:52.741Z,28.77
2022-09-14T15:48:19.816Z,28.84
2022-09-14T15:50:48.155Z,28.83
2022-09-14T15:53:16.266Z,28.13
2022-09-14T15:55:44.524Z,28.31
2022-09-14T15:58:11.789Z,28.28
2022-09-14T16:00:45.199Z,28.02
2022-09-14T16:03:12.016Z,27.86
2022-09-14T16:05:41.507Z,26.78
2022-09-14T16:08:08.185Z,26.15
2022-09-14T16:10:37.162Z,26.62
2022-09-14T16:13:03.895Z,26.15
2022-09-14T16:15:30.584Z,26.44
2022-09-14T16:17:59.533Z,26.48
2022-09-14T16:20:26.244Z,25.96
2022-09-14T16:22:52.924Z,25.22
2022-09-14T16:25:21.932Z,25.32
2022-09-14T16:27:51.093Z,24.70
2022-09-14T16:30:20.131Z,24.32
2022-09-14T16:32:49.104Z,25.38
2022-09-14T16:35:15.830Z,23.41
2022-09-14T16:37:44.840Z,23.84
2022-09-14T16:40:12.962Z,24.98
2022-09-14T16:42:42.165Z,23.09
2022-09-14T16:45:11.648Z,23.11
2022-09-14T16:47:40.773Z,24.35
2022-09-14T16:50:10.110Z,23.78
2022-09-14T16:52:36.775Z,24.34
2022-09-14T16:55:03.679Z,24.49
2022-09-14T16:57:30.482Z,23.86
2022-09-14T16:59:59.424Z,23.71
2022-09-14T17:02:26.125Z,24.33
2022-09-14T17:04:57.954Z,23.67
2022-09-14T17:07:25.031Z,23.55
2022-09-14T17:09:56.454Z,24.16
2022-09-14T17:12:23.185Z,23.93
2022-09-14T17:14:52.545Z,23.04
2022-09-14T17:17:23.806Z,23.81
2022-09-14T17:19:52.934Z,24.11
2022-09-14T17:22:19.848Z,24.08
2022-09-14T17:24:46.562Z,24.05
2022-09-14T17:27:13.424Z,23.61
2022-09-14T17:29:48.538Z,23.89
2022-09-14T17:32:19.347Z,23.49
2022-09-14T17:34:46.826Z,23.18
2022-09-14T17:37:13.560Z,22.91
2022-09-14T17:39:40.578Z,23.22
2022-09-14T17:42:10.144Z,23.48
2022-09-14T17:44:38.976Z,23.05
2022-09-14T17:47:10.513Z,23.19
2022-09-14T17:49:37.292Z,23.22
2022-09-14T17:52:06.434Z,23.11
2022-09-14T17:54:33.462Z,23.23
2022-09-14T17:57:02.639Z,22.79
2022-09-14T17:59:35.541Z,23.16
2022-09-14T18:04:33.452Z,23.17
2022-09-14T18:07:04.159Z,22.78
2022-09-14T18:09:33.217Z,23.20
2022-09-14T18:11:59.738Z,23.19
2022-09-14T18:14:26.653Z,23.18
2022-09-14T18:16:55.797Z,22.63
2022-09-14T18:19:22.529Z,23.18
2022-09-14T18:21:55.228Z,22.73
2022-09-14T18:24:24.382Z,22.54
2022-09-14T18:26:53.217Z,23.13
2022-09-14T18:29:21.496Z,23.10
2022-09-14T18:31:48.338Z,22.65
2022-09-14T18:34:17.249Z,23.02
2022-09-14T18:36:44.099Z,22.96
2022-09-14T18:39:12.501Z,22.18
2022-09-14T18:41:39.281Z,22.20
2022-09-14T18:44:06.199Z,22.23
2022-09-14T18:46:35.240Z,22.60
2022-09-14T18:49:02.423Z,22.71
2022-09-14T18:51:32.126Z,22.64
2022-09-14T18:54:05.425Z,22.52
2022-09-14T18:56:36.139Z,22.55
2022-09-14T18:59:05.252Z,22.50
2022-09-14T19:01:33.597Z,22.48
2022-09-14T19:04:07.816Z,21.44
2022-09-14T19:06:36.198Z,22.24
2022-09-14T19:09:06.647Z,22.46
2022-09-14T19:11:45.101Z,21.80
2022-09-14T19:14:12.992Z,21.52
2022-09-14T19:16:40.899Z,22.41
2022-09-14T19:19:12.144Z,22.34
2022-09-14T19:21:38.769Z,22.33
2022-09-14T19:24:08.194Z,22.35
2022-09-14T19:26:45.196Z,22.40
2022-09-14T19:29:16.972Z,22.46
2022-09-14T19:31:44.459Z,22.12
2022-09-14T19:34:14.204Z,21.94
2022-09-14T19:36:44.592Z,21.36
2022-09-14T19:39:21.069Z,22.42
2022-09-14T19:41:50.939Z,22.34
2022-09-14T19:44:22.298Z,21.79
2022-09-14T19:46:49.637Z,22.37
2022-09-14T19:49:20.671Z,22.28
2022-09-14T19:51:50.707Z,21.38
2022-09-14T19:54:20.008Z,22.24
2022-09-14T19:56:54.753Z,21.95
2022-09-14T19:59:29.670Z,22.36
2022-09-14T20:01:56.464Z,21.58
2022-09-14T20:04:25.772Z,22.25
2022-09-14T20:06:52.507Z,21.82
2022-09-14T20:09:21.568Z,22.45
2022-09-14T20:11:48.764Z,22.50
2022-09-14T20:14:23.506Z,22.28
2022-09-14T20:16:53.371Z,22.40
2022-09-14T20:19:22.409Z,21.49
2022-09-14T20:21:49.641Z,22.56
2022-09-14T20:24:25.696Z,22.13
2022-09-14T20:26:55.053Z,22.54
2022-09-14T20:29:23.163Z,22.50
2022-09-14T20:31:51.500Z,21.74
2022-09-14T20:34:20.665Z,21.72
2022-09-14T20:36:51.994Z,22.26
2022-09-14T20:39:19.958Z,22.05
2022-09-14T20:41:47.131Z,22.38
2022-09-14T20:44:14.239Z,22.36
2022-09-14T20:46:43.465Z,22.35
2022-09-14T20:49:13.223Z,22.33
2022-09-14T20:51:41.201Z,22.29
2022-09-14T20:54:11.025Z,22.13
2022-09-14T20:56:40.522Z,21.57
2022-09-14T20:59:12.751Z,21.81
2022-09-14T21:01:43.292Z,21.69
2022-09-14T21:04:12.685Z,22.08
2022-09-14T21:06:41.941Z,22.47
2022-09-14T21:09:14.261Z,22.24
2022-09-14T21:11:42.125Z,22.48
2022-09-14T21:14:09.038Z,22.13
2022-09-14T21:16:37.981Z,21.47
2022-09-14T21:19:07.172Z,21.87
2022-09-14T21:21:34.701Z,21.46
2022-09-14T21:24:01.759Z,21.78
2022-09-14T21:26:30.065Z,21.68
2022-09-14T21:29:06.388Z,21.57
2022-09-14T21:31:41.896Z,21.53
2022-09-14T21:34:11.766Z,21.93
2022-09-14T21:36:46.248Z,22.47
2022-09-14T21:39:15.839Z,22.43
2022-09-14T21:41:44.777Z,22.38
2022-09-14T21:44:12.785Z,22.39
2022-09-14T21:46:39.555Z,21.62
2022-09-14T21:49:12.778Z,22.48
2022-09-14T21:51:41.770Z,22.52
2022-09-14T21:54:13.192Z,21.91
2022-09-14T21:56:42.050Z,22.73
2022-09-14T21:59:12.898Z,22.18
2022-09-14T22:01:39.935Z,22.77
2022-09-14T22:04:12.678Z,22.16
2022-09-14T22:06:40.326Z,22.30
2022-09-14T22:09:59.798Z,22.99
2022-09-14T22:12:26.570Z,22.55
2022-09-14T22:14:53.220Z,23.07
2022-09-14T22:17:22.255Z,22.50
2022-09-14T22:19:49.289Z,23.09
2022-09-14T22:22:15.980Z,22.95
2022-09-14T22:24:42.993Z,22.86
2022-09-14T22:27:10.667Z,22.89
2022-09-14T22:29:41.148Z,22.94
2022-09-14T22:32:10.278Z,22.93
2022-09-14T22:34:37.286Z,22.70
2022-09-14T22:37:04.001Z,22.68
2022-09-14T22:39:31.167Z,22.82
2022-09-14T22:41:57.807Z,22.08
2022-09-14T22:44:24.548Z,21.62
2022-09-14T22:46:51.244Z,22.75
2022-09-14T22:49:20.354Z,22.77
2022-09-14T22:51:47.643Z,22.79
2022-09-14T22:54:16.646Z,21.95
2022-09-14T22:56:43.191Z,22.79
2022-09-14T22:59:10.642Z,22.53
2022-09-14T23:01:39.886Z,22.70
2022-09-14T23:04:09.988Z,22.29
2022-09-14T23:06:44.193Z,22.29
2022-09-14T23:09:17.158Z,22.31
2022-09-14T23:11:46.291Z,22.61
2022-09-14T23:14:16.330Z,22.72
2022-09-14T23:16:45.670Z,22.67
2022-09-14T23:19:15.482Z,22.67
2022-09-14T23:21:42.180Z,22.64
2022-09-14T23:24:11.463Z,22.16
2022-09-14T23:26:38.339Z,21.56
2022-09-14T23:29:16.202Z,21.43
2022-09-14T23:31:43.013Z,22.40
2022-09-14T23:34:09.832Z,22.40
2022-09-14T23:36:36.811Z,22.36
2022-09-14T23:39:05.840Z,21.76
2022-09-14T23:41:32.368Z,22.27
2022-09-14T23:44:03.382Z,22.23
2022-09-14T23:46:35.002Z,22.15
2022-09-14T23:49:01.704Z,21.51
2022-09-14T23:51:31.125Z,22.11
2022-09-14T23:53:59.823Z,21.87
2022-09-14T23:56:29.888Z,21.77
2022-09-14T23:58:56.939Z,22.00
